createdAt,value
2018-07-30T00:01:13.466Z,26.88
2018-07-30T00:03:41.964Z,26.83
2018-07-30T00:06:10.882Z,26.81
2018-07-30T00:08:39.372Z,26.78
2018-07-30T00:11:12.888Z,26.79
2018-07-30T00:13:41.403Z,26.78
2018-07-30T00:16:10.742Z,26.79
2018-07-30T00:18:39.249Z,26.81
2018-07-30T00:21:12.722Z,26.85
2018-07-30T00:23:41.144Z,26.86
2018-07-30T00:26:12.946Z,26.84
2018-07-30T00:28:41.343Z,26.81
2018-07-30T00:31:14.870Z,26.78
2018-07-30T00:33:43.520Z,26.75
2018-07-30T00:36:12.195Z,26.71
2018-07-30T00:38:40.737Z,26.67
2018-07-30T00:41:09.720Z,26.63
2018-07-30T00:43:38.288Z,26.62
2018-07-30T00:46:07.058Z,26.57
2018-07-30T00:48:36.805Z,26.54
2018-07-30T00:51:05.354Z,26.48
2018-07-30T00:53:33.901Z,26.49
2018-07-30T00:56:02.344Z,26.46
2018-07-30T00:58:31.100Z,26.46
2018-07-30T01:01:00.420Z,26.49
2018-07-30T01:03:28.973Z,26.51
2018-07-30T01:05:57.752Z,26.49
2018-07-30T01:08:26.925Z,26.49
2018-07-30T01:10:55.389Z,26.52
2018-07-30T01:13:24.078Z,26.52
2018-07-30T01:15:52.629Z,26.52
2018-07-30T01:18:21.133Z,26.52
2018-07-30T01:20:49.933Z,26.55
2018-07-30T01:23:18.589Z,26.54
2018-07-30T01:25:47.103Z,26.54
2018-07-30T01:28:15.789Z,26.51
2018-07-30T01:30:44.394Z,26.49
2018-07-30T01:33:12.971Z,26.46
2018-07-30T01:35:41.480Z,26.46
2018-07-30T01:38:09.911Z,26.47
2018-07-30T01:40:38.510Z,26.45
2018-07-30T01:43:07.006Z,26.42
2018-07-30T01:45:35.542Z,26.40
2018-07-30T01:48:04.157Z,26.38
2018-07-30T01:50:32.702Z,26.34
2018-07-30T01:53:01.412Z,26.34
2018-07-30T01:55:31.354Z,26.33
2018-07-30T01:57:59.791Z,26.29
2018-07-30T02:00:28.381Z,26.29
2018-07-30T02:02:57.228Z,26.29
2018-07-30T02:05:27.026Z,26.27
2018-07-30T02:07:55.661Z,26.24
2018-07-30T02:10:24.337Z,26.23
2018-07-30T02:12:52.860Z,26.23
2018-07-30T02:15:21.296Z,26.21
2018-07-30T02:17:50.065Z,26.22
2018-07-30T02:20:18.564Z,26.18
2018-07-30T02:22:47.292Z,26.18
2018-07-30T02:25:15.816Z,26.17
2018-07-30T02:27:44.530Z,26.15
2018-07-30T02:30:12.984Z,26.12
2018-07-30T02:32:41.932Z,26.11
2018-07-30T02:35:10.974Z,26.10
2018-07-30T02:37:39.863Z,26.13
2018-07-30T02:40:08.486Z,26.16
2018-07-30T02:42:37.022Z,26.15
2018-07-30T02:45:06.243Z,26.10
2018-07-30T02:47:34.730Z,26.08
2018-07-30T02:50:03.285Z,26.04
2018-07-30T02:52:32.463Z,25.99
2018-07-30T02:55:00.788Z,25.95
2018-07-30T02:57:29.329Z,25.94
2018-07-30T02:59:58.135Z,25.92
2018-07-30T03:02:26.945Z,25.90
2018-07-30T03:04:55.935Z,25.78
2018-07-30T03:07:24.500Z,25.71
2018-07-30T03:09:53.404Z,25.67
2018-07-30T03:12:22.096Z,25.66
2018-07-30T03:14:50.578Z,25.64
2018-07-30T03:17:19.697Z,25.62
2018-07-30T03:19:49.258Z,25.58
2018-07-30T03:22:18.398Z,25.56
2018-07-30T03:24:47.322Z,25.53
2018-07-30T03:27:15.978Z,25.51
2018-07-30T03:29:46.011Z,25.52
2018-07-30T03:32:17.191Z,25.52
2018-07-30T03:34:46.317Z,25.47
2018-07-30T03:37:14.880Z,25.44
2018-07-30T03:39:44.909Z,25.39
2018-07-30T03:42:13.639Z,25.39
2018-07-30T03:44:42.313Z,25.39
2018-07-30T03:47:10.885Z,25.39
2018-07-30T03:49:39.357Z,25.36
2018-07-30T03:52:08.646Z,25.35
2018-07-30T03:54:37.565Z,25.36
2018-07-30T03:57:06.650Z,25.34
2018-07-30T03:59:36.977Z,25.31
2018-07-30T04:02:05.484Z,25.31
2018-07-30T04:04:34.543Z,25.31
2018-07-30T04:07:03.056Z,25.28
2018-07-30T04:09:31.583Z,25.26
2018-07-30T04:12:00.086Z,25.27
2018-07-30T04:14:28.673Z,25.26
2018-07-30T04:16:57.240Z,25.28
2018-07-30T04:19:26.031Z,25.25
2018-07-30T04:22:04.117Z,25.24
2018-07-30T04:24:32.654Z,25.23
2018-07-30T04:27:01.206Z,25.25
2018-07-30T04:29:31.069Z,25.29
2018-07-30T04:31:59.610Z,25.29
2018-07-30T04:34:28.066Z,25.30
2018-07-30T04:36:56.548Z,25.26
2018-07-30T04:39:25.120Z,25.27
2018-07-30T04:44:47.327Z,25.20
2018-07-30T04:47:19.078Z,25.19
2018-07-30T04:49:47.926Z,25.09
2018-07-30T04:52:16.458Z,25.02
2018-07-30T04:54:45.240Z,25.04
2018-07-30T04:57:14.280Z,25.06
2018-07-30T04:59:48.472Z,25.07
2018-07-30T05:02:17.558Z,25.12
2018-07-30T05:04:48.114Z,25.10
2018-07-30T05:07:16.752Z,25.03
2018-07-30T05:09:50.542Z,25.02
2018-07-30T05:12:20.220Z,25.03
2018-07-30T05:14:49.032Z,24.99
2018-07-30T05:17:17.608Z,24.94
2018-07-30T05:19:46.123Z,24.92
2018-07-30T05:22:14.585Z,24.95
2018-07-30T05:24:43.052Z,25.01
2018-07-30T05:27:11.654Z,25.04
2018-07-30T05:29:40.340Z,25.01
2018-07-30T05:32:09.775Z,25.01
2018-07-30T05:34:38.406Z,25.03
2018-07-30T05:37:07.144Z,25.04
2018-07-30T05:39:35.953Z,25.06
2018-07-30T05:42:04.435Z,25.04
2018-07-30T05:44:33.181Z,25.06
2018-07-30T05:47:01.720Z,25.10
2018-07-30T05:49:30.161Z,25.15
2018-07-30T05:51:58.814Z,25.21
2018-07-30T05:54:27.353Z,25.24
2018-07-30T05:56:55.876Z,25.29
2018-07-30T05:59:24.307Z,25.32
2018-07-30T06:01:53.004Z,25.35
2018-07-30T06:04:21.552Z,25.39
2018-07-30T06:06:50.127Z,25.41
2018-07-30T06:09:18.830Z,25.43
2018-07-30T06:11:47.493Z,25.45
2018-07-30T06:14:16.988Z,25.46
2018-07-30T06:16:45.558Z,25.49
2018-07-30T06:19:13.984Z,25.51
2018-07-30T06:21:42.735Z,25.55
2018-07-30T06:24:11.270Z,25.58
2018-07-30T06:26:40.109Z,25.60
2018-07-30T06:29:08.616Z,25.61
2018-07-30T06:31:37.681Z,25.62
2018-07-30T06:34:06.658Z,25.66
2018-07-30T06:36:35.600Z,25.70
2018-07-30T06:39:07.553Z,25.71
2018-07-30T06:41:41.338Z,25.73
2018-07-30T06:44:11.445Z,25.77
2018-07-30T06:46:40.165Z,25.81
2018-07-30T06:49:10.407Z,25.88
2018-07-30T06:51:41.079Z,25.89
2018-07-30T06:54:10.456Z,25.89
2018-07-30T06:56:40.580Z,25.90
2018-07-30T06:59:13.772Z,25.93
2018-07-30T07:01:43.438Z,26.01
2018-07-30T07:04:11.980Z,26.02
2018-07-30T07:06:41.084Z,26.02
2018-07-30T07:09:10.790Z,26.04
2018-07-30T07:11:39.855Z,26.08
2018-07-30T07:14:09.082Z,26.13
2018-07-30T07:16:38.034Z,26.18
2018-07-30T07:19:06.569Z,26.28
2018-07-30T07:21:35.502Z,26.31
2018-07-30T07:24:05.673Z,26.38
2018-07-30T07:26:34.977Z,26.43
2018-07-30T07:29:04.060Z,26.49
2018-07-30T07:31:35.995Z,26.48
2018-07-30T07:34:05.561Z,26.54
2018-07-30T07:36:34.113Z,26.60
2018-07-30T07:39:02.775Z,26.68
2018-07-30T07:41:31.383Z,26.76
2018-07-30T07:43:59.876Z,26.83
2018-07-30T07:46:28.803Z,26.90
2018-07-30T07:48:57.314Z,26.96
2018-07-30T07:51:35.375Z,27.08
2018-07-30T07:54:04.814Z,27.13
2018-07-30T07:56:33.524Z,27.11
2018-07-30T07:59:04.372Z,27.13
2018-07-30T08:04:32.151Z,27.27
2018-07-30T08:07:01.977Z,27.29
2018-07-30T08:09:30.920Z,27.41
2018-07-30T08:12:04.744Z,27.57
2018-07-30T08:14:33.918Z,27.68
2018-07-30T08:17:03.589Z,27.77
2018-07-30T08:19:33.221Z,27.78
2018-07-30T08:22:02.043Z,27.81
2018-07-30T08:24:30.548Z,27.84
2018-07-30T08:26:59.105Z,27.88
2018-07-30T08:29:28.099Z,27.91
2018-07-30T08:31:57.214Z,27.91
2018-07-30T08:34:26.158Z,27.97
2018-07-30T08:36:54.580Z,28.01
2018-07-30T08:39:23.478Z,28.03
2018-07-30T08:41:56.106Z,28.04
2018-07-30T08:44:24.744Z,28.04
2018-07-30T08:46:53.305Z,28.11
2018-07-30T08:49:21.811Z,28.15
2018-07-30T08:51:50.728Z,28.25
2018-07-30T08:54:19.564Z,28.31
2018-07-30T08:56:48.073Z,28.30
2018-07-30T08:59:16.917Z,28.35
2018-07-30T09:01:45.440Z,28.40
2018-07-30T09:04:13.939Z,28.47
2018-07-30T09:06:42.499Z,28.54
2018-07-30T09:09:11.489Z,28.60
2018-07-30T09:11:40.301Z,28.64
2018-07-30T09:14:09.316Z,28.71
2018-07-30T09:16:37.861Z,28.77
2018-07-30T09:19:06.993Z,28.85
2018-07-30T09:21:35.651Z,28.99
2018-07-30T09:24:04.513Z,29.08
2018-07-30T09:26:32.925Z,29.19
2018-07-30T09:29:01.463Z,29.32
2018-07-30T09:31:30.221Z,29.50
2018-07-30T09:34:06.851Z,29.58
2018-07-30T09:36:44.112Z,29.66
2018-07-30T09:39:13.171Z,29.74
2018-07-30T09:41:42.162Z,29.77
2018-07-30T09:44:12.381Z,29.82
2018-07-30T09:46:41.039Z,29.92
2018-07-30T09:49:09.928Z,30.06
2018-07-30T09:51:38.849Z,30.26
2018-07-30T09:54:07.953Z,30.28
2018-07-30T09:56:38.268Z,30.33
2018-07-30T09:59:07.073Z,30.47
2018-07-30T10:01:36.196Z,30.60
2018-07-30T10:04:19.411Z,30.75
2018-07-30T10:06:47.904Z,30.88
2018-07-30T10:09:16.322Z,30.91
2018-07-30T10:11:44.752Z,30.92
2018-07-30T10:14:13.242Z,31.01
2018-07-30T10:16:41.661Z,31.11
2018-07-30T10:19:10.140Z,31.19
2018-07-30T10:21:38.972Z,31.29
2018-07-30T10:24:07.764Z,31.42
2018-07-30T10:26:36.205Z,31.49
2018-07-30T10:29:04.657Z,31.25
2018-07-30T10:31:33.281Z,31.09
2018-07-30T10:34:01.948Z,30.91
2018-07-30T10:36:30.430Z,31.06
2018-07-30T10:38:59.231Z,31.34
2018-07-30T10:41:27.755Z,31.41
2018-07-30T10:43:56.273Z,31.26
2018-07-30T10:46:24.736Z,31.04
2018-07-30T10:48:53.245Z,30.84
2018-07-30T10:51:21.785Z,30.71
2018-07-30T10:53:51.512Z,30.58
2018-07-30T10:56:22.009Z,30.79
2018-07-30T10:58:51.340Z,31.11
2018-07-30T11:01:19.799Z,31.24
2018-07-30T11:03:48.584Z,31.11
2018-07-30T11:06:18.328Z,31.10
2018-07-30T11:08:47.307Z,31.13
2018-07-30T11:11:15.757Z,31.26
2018-07-30T11:13:44.221Z,31.69
2018-07-30T11:16:12.791Z,32.17
2018-07-30T11:18:41.696Z,32.63
2018-07-30T11:21:10.386Z,33.01
2018-07-30T11:23:38.785Z,33.41
2018-07-30T11:26:07.501Z,33.54
2018-07-30T11:28:35.985Z,33.81
2018-07-30T11:31:04.455Z,34.09
2018-07-30T11:33:33.049Z,34.38
2018-07-30T11:36:01.597Z,34.45
2018-07-30T11:38:30.140Z,34.47
2018-07-30T11:40:58.624Z,34.28
2018-07-30T11:43:27.094Z,34.41
2018-07-30T11:45:55.563Z,34.42
2018-07-30T11:48:24.213Z,34.16
2018-07-30T11:50:52.619Z,33.77
2018-07-30T11:53:21.069Z,33.77
2018-07-30T11:55:49.485Z,34.10
2018-07-30T11:58:18.017Z,34.71
2018-07-30T12:00:46.746Z,35.00
2018-07-30T12:03:15.184Z,35.22
2018-07-30T12:05:43.723Z,35.55
2018-07-30T12:08:12.078Z,35.74
2018-07-30T12:10:40.568Z,35.86
2018-07-30T12:13:09.075Z,36.06
2018-07-30T12:15:37.467Z,36.17
2018-07-30T12:18:06.086Z,36.14
2018-07-30T12:20:34.590Z,36.08
2018-07-30T12:23:03.004Z,35.97
2018-07-30T12:25:31.424Z,36.14
2018-07-30T12:27:59.906Z,36.21
2018-07-30T12:30:28.546Z,36.69
2018-07-30T12:32:56.854Z,36.89
2018-07-30T12:35:25.229Z,36.99
2018-07-30T12:37:53.600Z,37.18
2018-07-30T12:40:22.044Z,37.38
2018-07-30T12:42:50.472Z,37.34
2018-07-30T12:45:23.372Z,37.23
2018-07-30T12:47:51.810Z,37.30
2018-07-30T12:50:20.251Z,37.62
2018-07-30T12:52:48.724Z,37.68
2018-07-30T12:55:17.154Z,37.56
2018-07-30T12:57:45.585Z,37.56
2018-07-30T13:00:14.032Z,37.75
2018-07-30T13:02:42.482Z,37.86
2018-07-30T13:05:10.958Z,37.79
2018-07-30T13:07:39.431Z,37.77
2018-07-30T13:10:08.905Z,37.54
2018-07-30T13:12:37.445Z,37.59
2018-07-30T13:15:05.849Z,37.53
2018-07-30T13:17:34.419Z,37.39
2018-07-30T13:20:02.921Z,37.43
2018-07-30T13:22:31.347Z,37.32
2018-07-30T13:24:59.794Z,37.24
2018-07-30T13:27:28.307Z,37.24
2018-07-30T13:29:56.840Z,37.11
2018-07-30T13:32:25.281Z,37.11
2018-07-30T13:34:53.788Z,37.17
2018-07-30T13:37:22.203Z,37.16
2018-07-30T13:39:50.659Z,37.21
2018-07-30T13:42:19.002Z,37.19
2018-07-30T13:44:47.430Z,37.14
2018-07-30T13:47:15.816Z,37.10
2018-07-30T13:49:44.376Z,37.02
2018-07-30T13:52:12.961Z,36.93
2018-07-30T13:54:41.326Z,36.98
2018-07-30T13:57:09.735Z,37.03
2018-07-30T13:59:38.149Z,37.05
2018-07-30T14:02:06.755Z,37.07
2018-07-30T14:04:35.201Z,37.16
2018-07-30T14:07:03.653Z,37.13
2018-07-30T14:09:32.107Z,37.19
2018-07-30T14:12:00.557Z,37.28
2018-07-30T14:14:29.045Z,37.18
2018-07-30T14:16:57.481Z,37.18
2018-07-30T14:19:25.941Z,37.21
2018-07-30T14:21:54.363Z,37.08
2018-07-30T14:24:22.818Z,36.98
2018-07-30T14:26:51.221Z,36.93
2018-07-30T14:29:19.663Z,36.94
2018-07-30T14:31:48.281Z,36.94
2018-07-30T14:34:16.777Z,36.88
2018-07-30T14:36:45.236Z,36.95
2018-07-30T14:39:13.671Z,36.91
2018-07-30T14:41:42.133Z,36.86
2018-07-30T14:44:10.573Z,36.80
2018-07-30T14:46:39.217Z,36.66
2018-07-30T14:49:07.595Z,36.58
2018-07-30T14:51:36.258Z,36.55
2018-07-30T14:54:04.689Z,36.44
2018-07-30T14:56:33.147Z,36.44
2018-07-30T14:59:01.636Z,36.44
2018-07-30T15:01:30.425Z,36.47
2018-07-30T15:03:58.834Z,36.48
2018-07-30T15:06:27.233Z,36.42
2018-07-30T15:08:55.613Z,36.24
2018-07-30T15:11:24.079Z,36.07
2018-07-30T15:13:52.513Z,35.76
2018-07-30T15:16:21.097Z,35.48
2018-07-30T15:18:49.502Z,35.27
2018-07-30T15:21:17.937Z,35.02
2018-07-30T15:23:46.337Z,34.87
2018-07-30T15:26:14.787Z,34.74
2018-07-30T15:28:43.240Z,34.64
2018-07-30T15:31:11.795Z,34.63
2018-07-30T15:33:40.342Z,34.52
2018-07-30T15:36:09.053Z,34.48
2018-07-30T15:38:37.846Z,34.46
2018-07-30T15:41:06.675Z,34.47
2018-07-30T15:43:35.586Z,34.43
2018-07-30T15:46:04.077Z,34.41
2018-07-30T15:48:38.523Z,34.37
2018-07-30T15:51:26.434Z,34.27
2018-07-30T15:53:55.101Z,34.15
2018-07-30T15:56:23.580Z,33.95
2018-07-30T15:58:52.219Z,33.85
2018-07-30T16:01:20.850Z,33.84
2018-07-30T16:03:49.922Z,33.74
2018-07-30T16:06:18.780Z,33.58
2018-07-30T16:08:47.571Z,33.54
2018-07-30T16:11:16.165Z,33.55
2018-07-30T16:13:44.826Z,33.58
2018-07-30T16:16:13.358Z,33.60
2018-07-30T16:18:41.891Z,33.64
2018-07-30T16:21:10.468Z,33.64
2018-07-30T16:23:38.845Z,33.64
2018-07-30T16:26:07.410Z,33.62
2018-07-30T16:28:35.824Z,33.62
2018-07-30T16:31:09.381Z,33.61
2018-07-30T16:33:37.762Z,33.60
2018-07-30T16:36:06.319Z,33.56
2018-07-30T16:38:34.958Z,33.57
2018-07-30T16:41:03.449Z,33.57
2018-07-30T16:43:31.833Z,33.56
2018-07-30T16:46:00.296Z,33.52
2018-07-30T16:48:28.678Z,33.50
2018-07-30T16:50:57.624Z,33.48
2018-07-30T16:53:26.216Z,33.44
2018-07-30T16:55:54.706Z,33.41
2018-07-30T16:58:23.266Z,33.39
2018-07-30T17:00:51.808Z,33.37
2018-07-30T17:03:20.318Z,33.33
2018-07-30T17:05:48.984Z,33.32
2018-07-30T17:08:17.804Z,33.30
2018-07-30T17:10:46.335Z,33.33
2018-07-30T17:13:14.746Z,33.31
2018-07-30T17:15:44.326Z,33.30
2018-07-30T17:18:13.420Z,33.31
2018-07-30T17:21:04.665Z,33.27
2018-07-30T17:23:33.160Z,33.23
2018-07-30T17:26:01.668Z,33.24
2018-07-30T17:28:30.280Z,33.22
2018-07-30T17:30:59.014Z,33.23
2018-07-30T17:33:27.580Z,33.21
2018-07-30T17:35:56.043Z,33.20
2018-07-30T17:38:24.602Z,33.21
2018-07-30T17:40:53.136Z,33.20
2018-07-30T17:43:21.570Z,33.19
2018-07-30T17:45:50.066Z,33.16
2018-07-30T17:48:18.742Z,33.10
2018-07-30T17:50:47.325Z,33.07
2018-07-30T17:53:15.794Z,33.03
2018-07-30T17:55:44.172Z,33.02
2018-07-30T17:58:12.656Z,33.00
2018-07-30T18:00:41.231Z,32.96
2018-07-30T18:03:09.786Z,32.94
2018-07-30T18:05:38.654Z,32.91
2018-07-30T18:08:08.039Z,32.91
2018-07-30T18:10:39.549Z,32.90
2018-07-30T18:13:10.420Z,32.87
2018-07-30T18:15:38.980Z,32.85
2018-07-30T18:18:07.520Z,32.82
2018-07-30T18:20:36.298Z,32.81
2018-07-30T18:23:04.753Z,32.77
2018-07-30T18:25:33.445Z,32.75
2018-07-30T18:28:02.139Z,32.72
2018-07-30T18:30:30.641Z,32.71
2018-07-30T18:32:59.259Z,32.68
2018-07-30T18:35:28.103Z,32.64
2018-07-30T18:37:56.922Z,32.62
2018-07-30T18:40:25.562Z,32.59
2018-07-30T18:42:54.165Z,32.57
2018-07-30T18:45:22.775Z,32.54
2018-07-30T18:47:52.255Z,32.52
2018-07-30T18:50:20.900Z,32.48
2018-07-30T18:52:49.395Z,32.47
2018-07-30T18:55:17.985Z,32.43
2018-07-30T18:57:48.851Z,32.39
2018-07-30T19:00:27.626Z,32.38
2018-07-30T19:02:56.243Z,32.32
2018-07-30T19:05:24.796Z,32.30
2018-07-30T19:07:53.260Z,32.27
2018-07-30T19:10:22.069Z,32.22
2018-07-30T19:12:55.530Z,32.19
2018-07-30T19:15:30.754Z,32.16
2018-07-30T19:17:59.294Z,32.12
2018-07-30T19:20:28.086Z,32.08
2018-07-30T19:23:02.582Z,32.05
2018-07-30T19:25:32.187Z,32.00
2018-07-30T19:28:00.750Z,31.95
2018-07-30T19:30:29.295Z,31.91
2018-07-30T19:32:58.649Z,31.90
2018-07-30T19:35:27.512Z,31.89
2018-07-30T19:37:56.289Z,31.87
2018-07-30T19:40:24.717Z,31.86
2018-07-30T19:42:53.413Z,31.86
2018-07-30T19:45:21.816Z,31.83
2018-07-30T19:47:50.252Z,31.83
2018-07-30T19:50:18.837Z,31.82
2018-07-30T19:52:47.315Z,31.79
2018-07-30T19:55:15.960Z,31.77
2018-07-30T19:57:45.311Z,31.74
2018-07-30T20:00:14.040Z,31.73
2018-07-30T20:02:42.516Z,31.70
2018-07-30T20:05:11.066Z,31.67
2018-07-30T20:07:39.713Z,31.65
2018-07-30T20:10:08.429Z,31.66
2018-07-30T20:12:36.955Z,31.64
2018-07-30T20:15:06.186Z,31.61
2018-07-30T20:17:34.742Z,31.59
2018-07-30T20:20:03.255Z,31.58
2018-07-30T20:22:33.971Z,31.54
2018-07-30T20:25:02.717Z,31.55
2018-07-30T20:27:31.638Z,31.50
2018-07-30T20:30:00.426Z,31.50
2018-07-30T20:32:29.408Z,31.47
2018-07-30T20:34:59.120Z,31.47
2018-07-30T20:37:27.894Z,31.44
2018-07-30T20:39:57.006Z,31.43
2018-07-30T20:42:26.323Z,31.39
2018-07-30T20:44:55.306Z,31.34
2018-07-30T20:47:24.786Z,31.30
2018-07-30T20:49:54.443Z,31.30
2018-07-30T20:52:24.539Z,31.25
2018-07-30T20:54:56.179Z,31.27
2018-07-30T20:57:26.052Z,31.26
2018-07-30T20:59:56.853Z,31.24
2018-07-30T21:02:26.056Z,31.23
2018-07-30T21:04:55.103Z,31.21
2018-07-30T21:07:25.144Z,31.14
2018-07-30T21:09:55.011Z,31.14
2018-07-30T21:12:37.171Z,31.08
2018-07-30T21:15:06.170Z,31.05
2018-07-30T21:17:35.044Z,31.03
2018-07-30T21:20:05.075Z,30.99
2018-07-30T21:22:34.819Z,30.94
2018-07-30T21:25:03.403Z,30.90
2018-07-30T21:27:32.716Z,30.87
2018-07-30T21:30:01.558Z,30.79
2018-07-30T21:32:30.134Z,30.75
2018-07-30T21:34:58.738Z,30.74
2018-07-30T21:37:27.196Z,30.74
2018-07-30T21:39:55.788Z,30.68
2018-07-30T21:42:37.980Z,30.63
2018-07-30T21:45:07.326Z,30.59
2018-07-30T21:47:35.848Z,30.55
2018-07-30T21:50:05.016Z,30.50
2018-07-30T21:52:33.894Z,30.46
2018-07-30T21:55:02.530Z,30.43
2018-07-30T21:57:31.019Z,30.45
2018-07-30T21:59:59.539Z,30.42
2018-07-30T22:02:28.257Z,30.40
2018-07-30T22:04:56.953Z,30.38
2018-07-30T22:07:25.448Z,30.35
2018-07-30T22:09:53.912Z,30.33
2018-07-30T22:12:22.393Z,30.31
2018-07-30T22:14:50.835Z,30.31
2018-07-30T22:17:19.320Z,30.29
2018-07-30T22:19:47.737Z,30.24
2018-07-30T22:22:16.280Z,30.22
2018-07-30T22:24:44.822Z,30.21
2018-07-30T22:27:13.875Z,30.22
2018-07-30T22:29:42.248Z,30.18
2018-07-30T22:32:11.266Z,30.12
2018-07-30T22:34:39.992Z,30.11
2018-07-30T22:37:08.362Z,30.08
2018-07-30T22:39:36.896Z,30.03
2018-07-30T22:42:05.382Z,29.98
2018-07-30T22:44:33.859Z,29.95
2018-07-30T22:47:02.315Z,29.91
2018-07-30T22:49:30.956Z,29.89
2018-07-30T22:51:59.624Z,29.84
2018-07-30T22:54:28.237Z,29.77
2018-07-30T22:56:56.856Z,29.75
2018-07-30T22:59:25.285Z,29.74
2018-07-30T23:01:53.754Z,29.71
2018-07-30T23:04:22.309Z,29.71
2018-07-30T23:06:50.862Z,29.68
2018-07-30T23:09:19.607Z,29.67
2018-07-30T23:11:48.384Z,29.69
2018-07-30T23:14:16.855Z,29.66
2018-07-30T23:16:45.317Z,29.63
2018-07-30T23:19:14.056Z,29.64
2018-07-30T23:21:51.878Z,29.61
2018-07-30T23:24:20.432Z,29.55
2018-07-30T23:26:48.871Z,29.54
2018-07-30T23:29:17.758Z,29.52
2018-07-30T23:31:46.391Z,29.54
2018-07-30T23:34:14.933Z,29.51
2018-07-30T23:36:43.751Z,29.46
2018-07-30T23:39:13.173Z,29.42
2018-07-30T23:41:42.002Z,29.38
2018-07-30T23:44:11.425Z,29.34
2018-07-30T23:46:40.183Z,29.33
2018-07-30T23:49:09.472Z,29.31
2018-07-30T23:51:38.423Z,29.27
2018-07-30T23:54:08.249Z,29.22
2018-07-30T23:56:37.654Z,29.20
2018-07-30T23:59:06.191Z,29.20
